createdAt,value
2024-01-15T00:01:45.524Z,94833.00
2024-01-15T00:05:48.969Z,94823.00
2024-01-15T00:09:53.712Z,94823.00
2024-01-15T00:13:56.760Z,94826.00
2024-01-15T00:17:59.865Z,94813.00
2024-01-15T00:22:03.122Z,94822.00
2024-01-15T00:26:10.914Z,94831.00
2024-01-15T00:30:15.210Z,94828.00
2024-01-15T00:34:18.312Z,94833.00
2024-01-15T00:38:21.466Z,94840.00
2024-01-15T00:42:25.994Z,94848.00
2024-01-15T00:46:29.156Z,94832.00
2024-01-15T00:50:32.250Z,94818.00
2024-01-15T00:54:35.507Z,94805.00
2024-01-15T00:58:40.004Z,94816.00
2024-01-15T01:02:43.222Z,94804.00
2024-01-15T01:06:46.942Z,94808.00
2024-01-15T01:10:50.052Z,94825.00
2024-01-15T01:14:54.543Z,94832.00
2024-01-15T01:18:59.096Z,94834.00
2024-01-15T01:23:02.642Z,94834.00
2024-01-15T01:27:06.162Z,94836.00
2024-01-15T01:31:10.795Z,94834.00
2024-01-15T01:35:15.296Z,94836.00
2024-01-15T01:39:18.706Z,94853.00
2024-01-15T01:43:21.869Z,94848.00
2024-01-15T01:47:27.706Z,94850.00
2024-01-15T01:51:30.960Z,94846.00
2024-01-15T01:55:35.842Z,94866.00
2024-01-15T01:59:39.906Z,94854.00
2024-01-15T02:03:45.301Z,94862.00
2024-01-15T02:07:49.723Z,94863.00
2024-01-15T02:11:52.901Z,94847.00
2024-01-15T02:15:56.054Z,94851.00
2024-01-15T02:20:00.671Z,94846.00
2024-01-15T02:24:05.546Z,94855.00
2024-01-15T02:28:10.158Z,94856.00
2024-01-15T02:32:13.561Z,94854.00
2024-01-15T02:36:19.048Z,94847.00
2024-01-15T02:40:23.530Z,94866.00
2024-01-15T02:44:26.548Z,94867.00
2024-01-15T02:48:29.961Z,94863.00
2024-01-15T02:52:33.183Z,94868.00
2024-01-15T02:56:37.615Z,94863.00
2024-01-15T03:05:06.806Z,94871.00
2024-01-15T03:09:10.061Z,94862.00
2024-01-15T03:13:14.584Z,94865.00
2024-01-15T03:17:17.672Z,94865.00
2024-01-15T03:21:20.757Z,94865.00
2024-01-15T03:25:23.808Z,94875.00
2024-01-15T03:29:28.281Z,94872.00
2024-01-15T03:33:31.499Z,94868.00
2024-01-15T03:37:34.591Z,94869.00
2024-01-15T03:41:37.684Z,94866.00
2024-01-15T03:45:42.200Z,94865.00
2024-01-15T03:49:45.344Z,94866.00
2024-01-15T03:53:48.735Z,94865.00
2024-01-15T03:57:51.820Z,94858.00
2024-01-15T04:01:56.380Z,94855.00
2024-01-15T04:05:59.591Z,94846.00
2024-01-15T04:10:02.841Z,94857.00
2024-01-15T04:14:06.085Z,94853.00
2024-01-15T04:18:10.775Z,94853.00
2024-01-15T04:22:13.885Z,94856.00
2024-01-15T04:26:16.906Z,94853.00
2024-01-15T04:30:20.256Z,94852.00
2024-01-15T04:34:25.021Z,94849.00
2024-01-15T04:38:28.369Z,94850.00
2024-01-15T04:42:31.418Z,94859.00
2024-01-15T04:46:34.511Z,94860.00
2024-01-15T04:50:39.007Z,94852.00
2024-01-15T04:54:42.068Z,94853.00
2024-01-15T04:58:45.141Z,94845.00
2024-01-15T05:02:48.232Z,94842.00
2024-01-15T05:06:52.751Z,94839.00
2024-01-15T05:10:55.848Z,94835.00
2024-01-15T05:14:59.369Z,94826.00
2024-01-15T05:19:02.482Z,94829.00
2024-01-15T05:23:07.105Z,94827.00
2024-01-15T05:27:10.199Z,94834.00
2024-01-15T05:31:13.430Z,94834.00
2024-01-15T05:35:16.565Z,94840.00
2024-01-15T05:39:23.110Z,94833.00
2024-01-15T05:43:27.004Z,94833.00
2024-01-15T05:47:30.480Z,94833.00
2024-01-15T05:51:33.905Z,94833.00
2024-01-15T05:55:40.293Z,94832.00
2024-01-15T05:59:43.500Z,94830.00
2024-01-15T06:03:46.621Z,94831.00
2024-01-15T06:07:49.765Z,94829.00
2024-01-15T06:11:54.228Z,94809.00
2024-01-15T06:15:57.387Z,94817.00
2024-01-15T06:20:01.790Z,94819.00
2024-01-15T06:24:05.285Z,94812.00
2024-01-15T06:28:10.833Z,94820.00
2024-01-15T06:32:13.976Z,94821.00
2024-01-15T06:36:18.017Z,94822.00
2024-01-15T06:40:21.241Z,94822.00
2024-01-15T06:44:25.698Z,94819.00
2024-01-15T06:48:28.867Z,94814.00
2024-01-15T06:52:31.932Z,94813.00
2024-01-15T06:56:35.085Z,94816.00
2024-01-15T07:00:39.881Z,94820.00
2024-01-15T07:04:43.860Z,94825.00
2024-01-15T07:08:47.136Z,94815.00
2024-01-15T07:12:50.418Z,94811.00
2024-01-15T07:16:55.195Z,94810.00
2024-01-15T07:20:58.246Z,94813.00
2024-01-15T07:25:01.355Z,94805.00
2024-01-15T07:29:04.689Z,94806.00
2024-01-15T07:33:09.357Z,94804.00
2024-01-15T07:37:12.853Z,94811.00
2024-01-15T07:41:16.177Z,94810.00
2024-01-15T07:45:19.425Z,94811.00
2024-01-15T07:49:24.968Z,94811.00
2024-01-15T07:53:29.113Z,94817.00
2024-01-15T07:57:32.318Z,94810.00
2024-01-15T08:01:35.462Z,94812.00
2024-01-15T08:05:40.699Z,94821.00
2024-01-15T08:09:44.165Z,94812.00
2024-01-15T08:13:47.225Z,94819.00
2024-01-15T08:17:50.388Z,94809.00
2024-01-15T08:21:55.083Z,94819.00
2024-01-15T08:25:58.218Z,94811.00
2024-01-15T08:30:01.618Z,94806.00
2024-01-15T08:34:07.446Z,94801.00
2024-01-15T08:38:11.948Z,94802.00
2024-01-15T08:42:15.113Z,94797.00
2024-01-15T08:46:18.304Z,94801.00
2024-01-15T08:50:21.501Z,94801.00
2024-01-15T08:54:26.257Z,94800.00
2024-01-15T08:58:29.928Z,94793.00
2024-01-15T09:02:33.036Z,94794.00
2024-01-15T09:06:36.145Z,94797.00
2024-01-15T09:10:40.620Z,94795.00
2024-01-15T09:14:43.905Z,94807.00
2024-01-15T09:18:48.235Z,94808.00
2024-01-15T09:22:51.446Z,94809.00
2024-01-15T09:26:56.303Z,94812.00
2024-01-15T09:30:59.598Z,94805.00
2024-01-15T09:35:02.737Z,94806.00
2024-01-15T09:39:07.481Z,94801.00
2024-01-15T09:43:12.673Z,94805.00
2024-01-15T09:47:17.514Z,94806.00
2024-01-15T09:51:20.721Z,94812.00
2024-01-15T09:55:24.477Z,94812.00
2024-01-15T09:59:30.329Z,94806.00
2024-01-15T10:03:33.473Z,94800.00
2024-01-15T10:07:38.410Z,94794.00
2024-01-15T10:11:41.881Z,94791.00
2024-01-15T10:15:48.298Z,94785.00
2024-01-15T10:19:51.650Z,94776.00
2024-01-15T10:23:54.929Z,94759.00
2024-01-15T10:28:03.055Z,94773.00
2024-01-15T10:32:09.946Z,94750.00
2024-01-15T10:36:13.386Z,94762.00
2024-01-15T10:40:16.703Z,94752.00
2024-01-15T10:44:19.921Z,94746.00
2024-01-15T10:48:24.622Z,94748.00
2024-01-15T10:52:28.490Z,94742.00
2024-01-15T10:56:33.831Z,94747.00
2024-01-15T11:00:38.973Z,94740.00
2024-01-15T11:04:43.702Z,94740.00
2024-01-15T11:08:54.724Z,94745.00
2024-01-15T11:12:58.106Z,94744.00
2024-01-15T11:17:01.529Z,94752.00
2024-01-15T11:21:27.597Z,94748.00
2024-01-15T11:25:38.744Z,94749.00
2024-01-15T11:29:41.807Z,94744.00
2024-01-15T11:33:52.693Z,94740.00
2024-01-15T11:38:03.128Z,94731.00
2024-01-15T11:42:06.781Z,94737.00
2024-01-15T11:46:13.924Z,94744.00
2024-01-15T11:50:17.221Z,94734.00
2024-01-15T11:54:25.873Z,94731.00
2024-01-15T11:58:29.266Z,94740.00
2024-01-15T12:02:33.745Z,94741.00
2024-01-15T12:06:37.449Z,94736.00
2024-01-15T12:10:43.421Z,94728.00
2024-01-15T12:14:46.894Z,94718.00
2024-01-15T12:18:50.198Z,94710.00
2024-01-15T12:23:00.738Z,94706.00
2024-01-15T12:27:08.005Z,94704.00
2024-01-15T12:31:11.198Z,94695.00
2024-01-15T12:35:14.416Z,94690.00
2024-01-15T12:39:17.948Z,94690.00
2024-01-15T12:43:22.553Z,94694.00
2024-01-15T12:47:25.933Z,94684.00
2024-01-15T12:51:29.271Z,94694.00
2024-01-15T12:55:32.425Z,94681.00
2024-01-15T12:59:36.919Z,94694.00
2024-01-15T13:03:40.206Z,94693.00
2024-01-15T13:07:43.911Z,94688.00
2024-01-15T13:11:47.490Z,94678.00
2024-01-15T13:15:52.329Z,94681.00
2024-01-15T13:19:55.443Z,94688.00
2024-01-15T13:23:58.704Z,94691.00
2024-01-15T13:28:02.092Z,94708.00
2024-01-15T13:32:07.188Z,94700.00
2024-01-15T13:36:11.767Z,94697.00
2024-01-15T13:40:18.274Z,94698.00
2024-01-15T13:44:22.644Z,94702.00
2024-01-15T13:48:27.726Z,94709.00
2024-01-15T13:52:30.894Z,94701.00
2024-01-15T13:56:34.578Z,94698.00
2024-01-15T14:00:38.065Z,94692.00
2024-01-15T14:04:43.090Z,94689.00
2024-01-15T14:08:46.203Z,94702.00
2024-01-15T14:12:50.066Z,94710.00
2024-01-15T14:16:53.520Z,94708.00
2024-01-15T14:20:58.189Z,94715.00
2024-01-15T14:25:01.322Z,94721.00
2024-01-15T14:29:05.860Z,94712.00
2024-01-15T14:33:09.574Z,94716.00
2024-01-15T14:37:14.090Z,94711.00
2024-01-15T14:41:18.074Z,94719.00
2024-01-15T14:45:21.572Z,94712.00
2024-01-15T14:49:24.849Z,94711.00
2024-01-15T14:53:29.387Z,94712.00
2024-01-15T14:57:32.580Z,94717.00
2024-01-15T15:01:37.131Z,94709.00
2024-01-15T15:05:40.370Z,94706.00
2024-01-15T15:09:44.863Z,94712.00
2024-01-15T15:13:48.799Z,94722.00
2024-01-15T15:17:51.891Z,94734.00
2024-01-15T15:21:55.116Z,94733.00
2024-01-15T15:25:59.702Z,94737.00
2024-01-15T15:30:02.748Z,94745.00
2024-01-15T15:34:08.303Z,94744.00
2024-01-15T15:38:11.415Z,94754.00
2024-01-15T15:42:15.997Z,94756.00
2024-01-15T15:46:20.126Z,94752.00
2024-01-15T15:50:23.595Z,94761.00
2024-01-15T15:54:26.853Z,94766.00
2024-01-15T15:58:31.588Z,94751.00
2024-01-15T16:02:35.758Z,94752.00
2024-01-15T16:06:39.044Z,94765.00
2024-01-15T16:10:42.163Z,94765.00
2024-01-15T16:14:47.055Z,94773.00
2024-01-15T16:23:22.443Z,94776.00
2024-01-15T16:24:01.518Z,94779.00
2024-01-15T16:27:38.498Z,94769.00
2024-01-15T16:31:43.006Z,94789.00
2024-01-15T16:35:46.243Z,94799.00
2024-01-15T16:39:49.407Z,94803.00
2024-01-15T16:43:52.632Z,94811.00
2024-01-15T16:47:57.332Z,94808.00
2024-01-15T16:52:01.242Z,94812.00
2024-01-15T16:56:05.200Z,94827.00
2024-01-15T17:00:09.837Z,94842.00
2024-01-15T17:04:14.831Z,94852.00
2024-01-15T17:08:19.176Z,94863.00
2024-01-15T17:12:22.637Z,94872.00
2024-01-15T17:16:25.876Z,94884.00
2024-01-15T17:20:30.922Z,94891.00
2024-01-15T17:24:34.028Z,94902.00
2024-01-15T17:28:37.155Z,94908.00
2024-01-15T17:32:40.321Z,94918.00
2024-01-15T17:36:45.117Z,94924.00
2024-01-15T17:40:48.922Z,94931.00
2024-01-15T17:44:52.598Z,94931.00
2024-01-15T17:48:56.989Z,94933.00
2024-01-15T17:53:01.534Z,94936.00
2024-01-15T17:57:05.236Z,94959.00
2024-01-15T18:01:08.325Z,94949.00
2024-01-15T18:05:12.084Z,94955.00
2024-01-15T18:09:18.412Z,94960.00
2024-01-15T18:13:22.039Z,94958.00
2024-01-15T18:17:27.056Z,94966.00
2024-01-15T18:21:30.346Z,94968.00
2024-01-15T18:25:35.324Z,94974.00
2024-01-15T18:29:38.764Z,94982.00
2024-01-15T18:33:42.237Z,94985.00
2024-01-15T18:37:47.141Z,94977.00
2024-01-15T18:41:51.744Z,94979.00
2024-01-15T18:45:54.992Z,94979.00
2024-01-15T18:49:58.196Z,94987.00
2024-01-15T18:54:01.538Z,94999.00
2024-01-15T18:58:06.279Z,94996.00
2024-01-15T19:02:09.662Z,94995.00
2024-01-15T19:06:15.085Z,95002.00
2024-01-15T19:10:18.216Z,94996.00
2024-01-15T19:14:22.896Z,94993.00
2024-01-15T19:18:27.716Z,95004.00
2024-01-15T19:22:30.849Z,95007.00
2024-01-15T19:26:33.969Z,95002.00
2024-01-15T19:30:39.599Z,95008.00
2024-01-15T19:34:43.117Z,95032.00
2024-01-15T19:38:46.225Z,95015.00
2024-01-15T19:42:49.294Z,95024.00
2024-01-15T19:46:53.716Z,95025.00
2024-01-15T19:50:57.462Z,95040.00
2024-01-15T19:55:00.565Z,95042.00
2024-01-15T19:59:03.665Z,95057.00
2024-01-15T20:03:10.737Z,95064.00
2024-01-15T20:07:13.881Z,95073.00
2024-01-15T20:11:17.939Z,95075.00
2024-01-15T20:15:21.034Z,95074.00
2024-01-15T20:19:25.591Z,95088.00
2024-01-15T20:23:28.723Z,95085.00
2024-01-15T20:27:31.904Z,95092.00
2024-01-15T20:31:35.299Z,95106.00
2024-01-15T20:35:40.709Z,95112.00
2024-01-15T20:39:44.009Z,95119.00
2024-01-15T20:43:47.064Z,95112.00
2024-01-15T20:47:50.291Z,95125.00
2024-01-15T20:51:54.868Z,95131.00
2024-01-15T20:55:58.422Z,95126.00
2024-01-15T21:00:01.517Z,95131.00
2024-01-15T21:04:04.676Z,95146.00
2024-01-15T21:08:09.510Z,95147.00
2024-01-15T21:12:12.703Z,95149.00
2024-01-15T21:16:16.055Z,95154.00
2024-01-15T21:20:19.240Z,95152.00
2024-01-15T21:24:28.691Z,95150.00
2024-01-15T21:28:32.242Z,95150.00
2024-01-15T21:32:35.780Z,95169.00
2024-01-15T21:36:39.463Z,95162.00
2024-01-15T21:40:43.971Z,95167.00
2024-01-15T21:44:47.147Z,95171.00
2024-01-15T21:48:51.931Z,95181.00
2024-01-15T21:52:55.052Z,95177.00
2024-01-15T21:56:59.471Z,95198.00
2024-01-15T22:01:02.993Z,95202.00
2024-01-15T22:05:06.792Z,95208.00
2024-01-15T22:09:09.878Z,95215.00
2024-01-15T22:13:14.522Z,95210.00
2024-01-15T22:17:17.655Z,95216.00
2024-01-15T22:21:20.728Z,95221.00
2024-01-15T22:25:23.776Z,95225.00
2024-01-15T22:29:28.225Z,95232.00
2024-01-15T22:33:31.412Z,95234.00
2024-01-15T22:37:35.526Z,95232.00
2024-01-15T22:41:38.908Z,95235.00
2024-01-15T22:45:43.610Z,95232.00
2024-01-15T22:49:46.839Z,95232.00
2024-01-15T22:53:50.873Z,95221.00
2024-01-15T22:57:54.628Z,95229.00
2024-01-15T23:01:59.208Z,95236.00
2024-01-15T23:06:02.358Z,95233.00
2024-01-15T23:10:08.354Z,95228.00
2024-01-15T23:14:11.496Z,95233.00
2024-01-15T23:18:16.174Z,95248.00
2024-01-15T23:22:19.336Z,95247.00
2024-01-15T23:26:22.680Z,95255.00
2024-01-15T23:30:25.882Z,95257.00
2024-01-15T23:34:30.397Z,95253.00
2024-01-15T23:38:33.721Z,95259.00
2024-01-15T23:42:37.118Z,95246.00
2024-01-15T23:46:40.175Z,95252.00
2024-01-15T23:50:44.818Z,95259.00
2024-01-15T23:54:47.924Z,95267.00
2024-01-15T23:58:51.567Z,95262.00
